sensor_id;sensor_type;location;lat;lon;timestamp;P1;durP1;ratioP1;P2;durP2;ratioP2
72951;SDS011;61102;51.956;5.878;2022-12-26T00:01:25;15.05;;;3.53;;
72951;SDS011;61102;51.956;5.878;2022-12-26T00:03:53;15.82;;;3.63;;
72951;SDS011;61102;51.956;5.878;2022-12-26T00:06:24;16.05;;;4.10;;
72951;SDS011;61102;51.956;5.878;2022-12-26T00:08:52;15.00;;;3.53;;
72951;SDS011;61102;51.956;5.878;2022-12-26T00:11:19;16.58;;;3.70;;
72951;SDS011;61102;51.956;5.878;2022-12-26T00:13:46;21.38;;;4.57;;
72951;SDS011;61102;51.956;5.878;2022-12-26T00:16:27;15.57;;;3.53;;
72951;SDS011;61102;51.956;5.878;2022-12-26T00:18:54;19.33;;;4.32;;
72951;SDS011;61102;51.956;5.878;2022-12-26T00:21:20;20.23;;;4.45;;
72951;SDS011;61102;51.956;5.878;2022-12-26T00:23:48;18.80;;;4.35;;
72951;SDS011;61102;51.956;5.878;2022-12-26T00:26:16;17.02;;;4.20;;
72951;SDS011;61102;51.956;5.878;2022-12-26T00:28:43;21.05;;;4.28;;
72951;SDS011;61102;51.956;5.878;2022-12-26T00:31:11;18.55;;;4.97;;
72951;SDS011;61102;51.956;5.878;2022-12-26T00:33:39;17.60;;;3.90;;
72951;SDS011;61102;51.956;5.878;2022-12-26T00:36:07;17.30;;;3.22;;
72951;SDS011;61102;51.956;5.878;2022-12-26T00:38:36;17.02;;;3.70;;
72951;SDS011;61102;51.956;5.878;2022-12-26T00:41:03;17.20;;;3.88;;
72951;SDS011;61102;51.956;5.878;2022-12-26T00:45:56;14.73;;;3.08;;
72951;SDS011;61102;51.956;5.878;2022-12-26T00:48:23;13.93;;;3.30;;
72951;SDS011;61102;51.956;5.878;2022-12-26T00:50:49;16.33;;;3.80;;
72951;SDS011;61102;51.956;5.878;2022-12-26T00:53:16;17.23;;;4.45;;
72951;SDS011;61102;51.956;5.878;2022-12-26T00:55:49;19.35;;;4.40;;
72951;SDS011;61102;51.956;5.878;2022-12-26T00:58:16;19.08;;;4.82;;
72951;SDS011;61102;51.956;5.878;2022-12-26T01:00:43;19.13;;;5.13;;
72951;SDS011;61102;51.956;5.878;2022-12-26T01:03:10;19.23;;;4.80;;
72951;SDS011;61102;51.956;5.878;2022-12-26T01:05:41;18.38;;;4.18;;
72951;SDS011;61102;51.956;5.878;2022-12-26T01:08:10;20.00;;;5.15;;
72951;SDS011;61102;51.956;5.878;2022-12-26T01:10:40;21.65;;;4.47;;
72951;SDS011;61102;51.956;5.878;2022-12-26T01:13:08;21.88;;;5.32;;
72951;SDS011;61102;51.956;5.878;2022-12-26T01:15:35;25.05;;;6.22;;
72951;SDS011;61102;51.956;5.878;2022-12-26T01:18:02;23.17;;;6.93;;
72951;SDS011;61102;51.956;5.878;2022-12-26T01:20:31;22.52;;;5.53;;
72951;SDS011;61102;51.956;5.878;2022-12-26T01:22:57;18.80;;;5.63;;
72951;SDS011;61102;51.956;5.878;2022-12-26T01:25:24;20.27;;;5.32;;
72951;SDS011;61102;51.956;5.878;2022-12-26T01:27:51;17.17;;;4.95;;
72951;SDS011;61102;51.956;5.878;2022-12-26T01:30:17;25.60;;;6.97;;
72951;SDS011;61102;51.956;5.878;2022-12-26T01:32:44;26.30;;;7.65;;
72951;SDS011;61102;51.956;5.878;2022-12-26T01:35:11;28.38;;;7.40;;
72951;SDS011;61102;51.956;5.878;2022-12-26T01:37:37;22.23;;;6.07;;
72951;SDS011;61102;51.956;5.878;2022-12-26T01:40:04;19.88;;;5.80;;
72951;SDS011;61102;51.956;5.878;2022-12-26T01:42:38;19.58;;;5.90;;
72951;SDS011;61102;51.956;5.878;2022-12-26T01:45:08;16.10;;;4.70;;
72951;SDS011;61102;51.956;5.878;2022-12-26T01:47:45;15.40;;;4.43;;
72951;SDS011;61102;51.956;5.878;2022-12-26T01:50:57;19.98;;;5.55;;
72951;SDS011;61102;51.956;5.878;2022-12-26T01:53:09;14.32;;;4.38;;
72951;SDS011;61102;51.956;5.878;2022-12-26T01:55:43;20.15;;;5.63;;
72951;SDS011;61102;51.956;5.878;2022-12-26T01:58:14;17.52;;;5.15;;
72951;SDS011;61102;51.956;5.878;2022-12-26T02:00:45;15.75;;;4.97;;
72951;SDS011;61102;51.956;5.878;2022-12-26T02:03:15;13.27;;;4.57;;
72951;SDS011;61102;51.956;5.878;2022-12-26T02:06:00;17.92;;;4.95;;
72951;SDS011;61102;51.956;5.878;2022-12-26T02:08:28;20.63;;;6.15;;
72951;SDS011;61102;51.956;5.878;2022-12-26T02:13:33;14.60;;;5.10;;
72951;SDS011;61102;51.956;5.878;2022-12-26T02:16:03;17.08;;;5.47;;
72951;SDS011;61102;51.956;5.878;2022-12-26T02:18:31;16.17;;;4.43;;
72951;SDS011;61102;51.956;5.878;2022-12-26T02:40:12;15.73;;;5.05;;
72951;SDS011;61102;51.956;5.878;2022-12-26T02:48:18;20.05;;;6.35;;
72951;SDS011;61102;51.956;5.878;2022-12-26T02:51:05;16.33;;;5.90;;
72951;SDS011;61102;51.956;5.878;2022-12-26T02:57:04;16.02;;;5.40;;
72951;SDS011;61102;51.956;5.878;2022-12-26T03:00:03;22.15;;;8.02;;
72951;SDS011;61102;51.956;5.878;2022-12-26T03:02:57;16.10;;;5.70;;
72951;SDS011;61102;51.956;5.878;2022-12-26T03:05:57;17.88;;;6.30;;
72951;SDS011;61102;51.956;5.878;2022-12-26T03:11:46;19.80;;;6.55;;
72951;SDS011;61102;51.956;5.878;2022-12-26T03:17:10;21.15;;;7.13;;
72951;SDS011;61102;51.956;5.878;2022-12-26T03:19:47;16.55;;;5.65;;
72951;SDS011;61102;51.956;5.878;2022-12-26T03:22:31;15.00;;;5.38;;
72951;SDS011;61102;51.956;5.878;2022-12-26T03:28:34;15.10;;;5.35;;
72951;SDS011;61102;51.956;5.878;2022-12-26T03:31:03;14.20;;;4.75;;
72951;SDS011;61102;51.956;5.878;2022-12-26T03:33:33;13.60;;;4.57;;
72951;SDS011;61102;51.956;5.878;2022-12-26T03:36:33;14.88;;;5.60;;
72951;SDS011;61102;51.956;5.878;2022-12-26T03:39:09;15.10;;;5.95;;
72951;SDS011;61102;51.956;5.878;2022-12-26T03:51:13;19.52;;;7.35;;
72951;SDS011;61102;51.956;5.878;2022-12-26T03:54:16;20.40;;;7.40;;
72951;SDS011;61102;51.956;5.878;2022-12-26T03:57:09;19.15;;;6.43;;
72951;SDS011;61102;51.956;5.878;2022-12-26T04:00:09;21.23;;;8.40;;
72951;SDS011;61102;51.956;5.878;2022-12-26T04:02:58;22.77;;;7.90;;
72951;SDS011;61102;51.956;5.878;2022-12-26T04:05:48;23.65;;;9.30;;
72951;SDS011;61102;51.956;5.878;2022-12-26T04:09:23;21.40;;;7.97;;
72951;SDS011;61102;51.956;5.878;2022-12-26T04:11:47;20.75;;;7.75;;
72951;SDS011;61102;51.956;5.878;2022-12-26T04:20:32;24.08;;;8.55;;
72951;SDS011;61102;51.956;5.878;2022-12-26T04:23:02;18.48;;;7.30;;
72951;SDS011;61102;51.956;5.878;2022-12-26T04:26:19;24.13;;;9.52;;
72951;SDS011;61102;51.956;5.878;2022-12-26T04:29:05;20.70;;;7.45;;
72951;SDS011;61102;51.956;5.878;2022-12-26T04:31:52;20.67;;;8.13;;
72951;SDS011;61102;51.956;5.878;2022-12-26T04:34:49;23.05;;;7.85;;
72951;SDS011;61102;51.956;5.878;2022-12-26T04:37:38;21.73;;;8.07;;
72951;SDS011;61102;51.956;5.878;2022-12-26T04:40:28;19.85;;;8.57;;
72951;SDS011;61102;51.956;5.878;2022-12-26T04:43:18;25.55;;;9.55;;
72951;SDS011;61102;51.956;5.878;2022-12-26T04:46:03;20.48;;;8.88;;
72951;SDS011;61102;51.956;5.878;2022-12-26T04:48:31;18.75;;;8.20;;
72951;SDS011;61102;51.956;5.878;2022-12-26T04:51:16;19.38;;;7.40;;
72951;SDS011;61102;51.956;5.878;2022-12-26T04:53:43;24.25;;;10.82;;
72951;SDS011;61102;51.956;5.878;2022-12-26T04:56:09;22.17;;;9.98;;
72951;SDS011;61102;51.956;5.878;2022-12-26T04:58:35;18.88;;;8.88;;
72951;SDS011;61102;51.956;5.878;2022-12-26T05:01:02;18.08;;;9.18;;
72951;SDS011;61102;51.956;5.878;2022-12-26T05:03:50;18.80;;;9.15;;
72951;SDS011;61102;51.956;5.878;2022-12-26T05:06:35;17.70;;;8.25;;
72951;SDS011;61102;51.956;5.878;2022-12-26T05:09:19;17.10;;;8.73;;
72951;SDS011;61102;51.956;5.878;2022-12-26T05:12:02;15.95;;;7.70;;
72951;SDS011;61102;51.956;5.878;2022-12-26T05:14:29;15.23;;;8.13;;
72951;SDS011;61102;51.956;5.878;2022-12-26T05:16:57;15.95;;;7.60;;
72951;SDS011;61102;51.956;5.878;2022-12-26T05:19:42;16.80;;;9.43;;
72951;SDS011;61102;51.956;5.878;2022-12-26T05:22:28;11.82;;;5.60;;
72951;SDS011;61102;51.956;5.878;2022-12-26T05:25:16;12.20;;;6.13;;
72951;SDS011;61102;51.956;5.878;2022-12-26T05:28:04;11.35;;;5.28;;
72951;SDS011;61102;51.956;5.878;2022-12-26T05:30:52;10.05;;;4.18;;
72951;SDS011;61102;51.956;5.878;2022-12-26T05:33:19;10.57;;;4.93;;
72951;SDS011;61102;51.956;5.878;2022-12-26T05:36:03;13.10;;;6.00;;
72951;SDS011;61102;51.956;5.878;2022-12-26T05:38:30;10.73;;;5.15;;
72951;SDS011;61102;51.956;5.878;2022-12-26T05:40:56;13.07;;;5.97;;
72951;SDS011;61102;51.956;5.878;2022-12-26T05:43:22;13.40;;;5.75;;
72951;SDS011;61102;51.956;5.878;2022-12-26T05:45:48;10.45;;;4.90;;
72951;SDS011;61102;51.956;5.878;2022-12-26T05:48:30;11.27;;;5.20;;
72951;SDS011;61102;51.956;5.878;2022-12-26T05:50:57;10.52;;;4.80;;
72951;SDS011;61102;51.956;5.878;2022-12-26T05:53:25;10.63;;;4.30;;
72951;SDS011;61102;51.956;5.878;2022-12-26T05:55:51;8.65;;;3.50;;
72951;SDS011;61102;51.956;5.878;2022-12-26T05:58:18;8.88;;;3.53;;
72951;SDS011;61102;51.956;5.878;2022-12-26T06:00:44;9.75;;;4.03;;
72951;SDS011;61102;51.956;5.878;2022-12-26T06:03:11;7.25;;;2.90;;
72951;SDS011;61102;51.956;5.878;2022-12-26T06:05:37;7.63;;;2.80;;
72951;SDS011;61102;51.956;5.878;2022-12-26T06:08:04;8.63;;;3.60;;
72951;SDS011;61102;51.956;5.878;2022-12-26T06:10:30;7.97;;;3.05;;
72951;SDS011;61102;51.956;5.878;2022-12-26T06:12:56;7.30;;;2.70;;
72951;SDS011;61102;51.956;5.878;2022-12-26T06:15:25;6.75;;;2.45;;
72951;SDS011;61102;51.956;5.878;2022-12-26T06:17:52;6.18;;;2.10;;
72951;SDS011;61102;51.956;5.878;2022-12-26T06:20:21;10.48;;;2.63;;
72951;SDS011;61102;51.956;5.878;2022-12-26T06:22:48;5.78;;;1.98;;
72951;SDS011;61102;51.956;5.878;2022-12-26T06:25:14;7.55;;;2.40;;
72951;SDS011;61102;51.956;5.878;2022-12-26T06:27:41;7.20;;;1.90;;
72951;SDS011;61102;51.956;5.878;2022-12-26T06:30:08;5.47;;;1.75;;
72951;SDS011;61102;51.956;5.878;2022-12-26T06:32:35;6.90;;;2.60;;
72951;SDS011;61102;51.956;5.878;2022-12-26T06:35:02;6.75;;;2.65;;
72951;SDS011;61102;51.956;5.878;2022-12-26T06:37:28;5.88;;;2.30;;
72951;SDS011;61102;51.956;5.878;2022-12-26T06:39:55;6.57;;;2.28;;
72951;SDS011;61102;51.956;5.878;2022-12-26T06:42:22;6.35;;;2.33;;
72951;SDS011;61102;51.956;5.878;2022-12-26T06:44:49;7.35;;;2.60;;
72951;SDS011;61102;51.956;5.878;2022-12-26T06:47:15;7.40;;;2.60;;
72951;SDS011;61102;51.956;5.878;2022-12-26T06:49:42;5.07;;;1.77;;
72951;SDS011;61102;51.956;5.878;2022-12-26T06:52:08;6.22;;;2.30;;
72951;SDS011;61102;51.956;5.878;2022-12-26T06:54:36;7.68;;;2.45;;
72951;SDS011;61102;51.956;5.878;2022-12-26T06:57:03;7.50;;;2.45;;
72951;SDS011;61102;51.956;5.878;2022-12-26T06:59:30;7.45;;;2.70;;
72951;SDS011;61102;51.956;5.878;2022-12-26T07:01:56;9.13;;;3.00;;
72951;SDS011;61102;51.956;5.878;2022-12-26T07:04:23;8.43;;;2.72;;
72951;SDS011;61102;51.956;5.878;2022-12-26T07:06:49;8.82;;;3.20;;
72951;SDS011;61102;51.956;5.878;2022-12-26T07:09:16;9.90;;;3.60;;
72951;SDS011;61102;51.956;5.878;2022-12-26T07:11:44;7.65;;;2.60;;
72951;SDS011;61102;51.956;5.878;2022-12-26T07:14:13;9.07;;;2.90;;
72951;SDS011;61102;51.956;5.878;2022-12-26T07:19:09;7.63;;;2.35;;
72951;SDS011;61102;51.956;5.878;2022-12-26T07:21:37;9.25;;;3.00;;
72951;SDS011;61102;51.956;5.878;2022-12-26T07:24:04;9.68;;;3.88;;
72951;SDS011;61102;51.956;5.878;2022-12-26T07:26:30;9.13;;;3.22;;
72951;SDS011;61102;51.956;5.878;2022-12-26T07:28:57;7.85;;;3.00;;
72951;SDS011;61102;51.956;5.878;2022-12-26T07:33:53;6.38;;;2.35;;
72951;SDS011;61102;51.956;5.878;2022-12-26T07:38:46;7.55;;;2.90;;
72951;SDS011;61102;51.956;5.878;2022-12-26T07:41:14;8.63;;;2.80;;
72951;SDS011;61102;51.956;5.878;2022-12-26T07:43:59;7.90;;;2.97;;
72951;SDS011;61102;51.956;5.878;2022-12-26T07:46:25;6.95;;;2.70;;
72951;SDS011;61102;51.956;5.878;2022-12-26T07:48:52;10.18;;;3.70;;
72951;SDS011;61102;51.956;5.878;2022-12-26T07:51:20;9.35;;;3.50;;
72951;SDS011;61102;51.956;5.878;2022-12-26T07:53:46;9.88;;;3.63;;
72951;SDS011;61102;51.956;5.878;2022-12-26T07:56:13;8.02;;;3.08;;
72951;SDS011;61102;51.956;5.878;2022-12-26T07:58:39;7.82;;;3.40;;
72951;SDS011;61102;51.956;5.878;2022-12-26T08:01:06;8.40;;;3.45;;
72951;SDS011;61102;51.956;5.878;2022-12-26T08:03:32;9.30;;;3.30;;
72951;SDS011;61102;51.956;5.878;2022-12-26T08:05:59;8.27;;;3.17;;
72951;SDS011;61102;51.956;5.878;2022-12-26T08:08:26;8.30;;;3.15;;
72951;SDS011;61102;51.956;5.878;2022-12-26T08:10:59;8.40;;;2.75;;
72951;SDS011;61102;51.956;5.878;2022-12-26T08:15:53;8.23;;;2.58;;
72951;SDS011;61102;51.956;5.878;2022-12-26T08:18:19;8.07;;;2.70;;
72951;SDS011;61102;51.956;5.878;2022-12-26T08:20:46;7.00;;;2.58;;
72951;SDS011;61102;51.956;5.878;2022-12-26T08:23:12;7.20;;;2.15;;
72951;SDS011;61102;51.956;5.878;2022-12-26T08:25:39;9.15;;;2.95;;
72951;SDS011;61102;51.956;5.878;2022-12-26T08:28:05;6.88;;;2.22;;
72951;SDS011;61102;51.956;5.878;2022-12-26T08:30:31;6.50;;;2.30;;
72951;SDS011;61102;51.956;5.878;2022-12-26T08:32:58;8.20;;;3.20;;
72951;SDS011;61102;51.956;5.878;2022-12-26T08:35:24;8.35;;;2.80;;
72951;SDS011;61102;51.956;5.878;2022-12-26T08:37:50;8.70;;;3.00;;
72951;SDS011;61102;51.956;5.878;2022-12-26T08:40:17;6.80;;;2.35;;
72951;SDS011;61102;51.956;5.878;2022-12-26T08:42:43;6.93;;;2.40;;
72951;SDS011;61102;51.956;5.878;2022-12-26T08:45:09;8.45;;;2.85;;
72951;SDS011;61102;51.956;5.878;2022-12-26T08:47:36;8.73;;;2.50;;
72951;SDS011;61102;51.956;5.878;2022-12-26T08:50:02;6.63;;;2.15;;
72951;SDS011;61102;51.956;5.878;2022-12-26T08:52:29;10.27;;;2.90;;
72951;SDS011;61102;51.956;5.878;2022-12-26T08:54:56;5.95;;;1.90;;
72951;SDS011;61102;51.956;5.878;2022-12-26T08:57:22;5.57;;;1.75;;
72951;SDS011;61102;51.956;5.878;2022-12-26T08:59:49;6.65;;;2.15;;
72951;SDS011;61102;51.956;5.878;2022-12-26T09:02:15;6.93;;;2.15;;
72951;SDS011;61102;51.956;5.878;2022-12-26T09:04:42;6.30;;;1.80;;
72951;SDS011;61102;51.956;5.878;2022-12-26T09:07:08;6.68;;;2.00;;
72951;SDS011;61102;51.956;5.878;2022-12-26T09:09:35;9.32;;;2.13;;
72951;SDS011;61102;51.956;5.878;2022-12-26T09:12:02;7.68;;;2.20;;
72951;SDS011;61102;51.956;5.878;2022-12-26T09:14:28;6.32;;;1.83;;
72951;SDS011;61102;51.956;5.878;2022-12-26T09:16:55;6.82;;;1.63;;
72951;SDS011;61102;51.956;5.878;2022-12-26T09:19:22;5.32;;;1.60;;
72951;SDS011;61102;51.956;5.878;2022-12-26T09:21:49;6.70;;;1.70;;
72951;SDS011;61102;51.956;5.878;2022-12-26T09:24:36;7.95;;;1.73;;
72951;SDS011;61102;51.956;5.878;2022-12-26T09:27:02;6.22;;;1.63;;
72951;SDS011;61102;51.956;5.878;2022-12-26T09:29:29;10.38;;;1.73;;
72951;SDS011;61102;51.956;5.878;2022-12-26T09:31:56;6.72;;;1.50;;
72951;SDS011;61102;51.956;5.878;2022-12-26T09:34:22;7.13;;;1.38;;
72951;SDS011;61102;51.956;5.878;2022-12-26T09:36:49;5.25;;;1.50;;
72951;SDS011;61102;51.956;5.878;2022-12-26T09:39:17;7.28;;;1.85;;
72951;SDS011;61102;51.956;5.878;2022-12-26T09:41:59;4.50;;;1.40;;
72951;SDS011;61102;51.956;5.878;2022-12-26T09:44:41;5.75;;;1.33;;
72951;SDS011;61102;51.956;5.878;2022-12-26T09:49:56;6.13;;;1.27;;
72951;SDS011;61102;51.956;5.878;2022-12-26T09:56:02;5.38;;;1.20;;
72951;SDS011;61102;51.956;5.878;2022-12-26T09:58:34;5.18;;;1.15;;
72951;SDS011;61102;51.956;5.878;2022-12-26T10:01:22;10.55;;;1.58;;
72951;SDS011;61102;51.956;5.878;2022-12-26T10:03:53;8.13;;;1.75;;
72951;SDS011;61102;51.956;5.878;2022-12-26T10:06:25;8.18;;;1.23;;
72951;SDS011;61102;51.956;5.878;2022-12-26T10:17:43;7.63;;;1.63;;
72951;SDS011;61102;51.956;5.878;2022-12-26T10:20:27;6.00;;;1.20;;
72951;SDS011;61102;51.956;5.878;2022-12-26T10:23:04;4.72;;;1.10;;
72951;SDS011;61102;51.956;5.878;2022-12-26T10:25:47;8.30;;;1.17;;
72951;SDS011;61102;51.956;5.878;2022-12-26T10:28:30;4.43;;;0.90;;
72951;SDS011;61102;51.956;5.878;2022-12-26T10:30:58;5.95;;;1.05;;
72951;SDS011;61102;51.956;5.878;2022-12-26T10:33:35;5.22;;;1.02;;
72951;SDS011;61102;51.956;5.878;2022-12-26T10:36:15;4.63;;;0.80;;
72951;SDS011;61102;51.956;5.878;2022-12-26T10:38:46;7.47;;;1.40;;
72951;SDS011;61102;51.956;5.878;2022-12-26T10:44:04;6.82;;;1.10;;
72951;SDS011;61102;51.956;5.878;2022-12-26T10:49:36;5.03;;;0.90;;
72951;SDS011;61102;51.956;5.878;2022-12-26T10:52:02;5.28;;;1.00;;
72951;SDS011;61102;51.956;5.878;2022-12-26T10:54:29;8.40;;;1.50;;
72951;SDS011;61102;51.956;5.878;2022-12-26T11:00:25;6.95;;;1.20;;
72951;SDS011;61102;51.956;5.878;2022-12-26T11:03:26;9.68;;;0.75;;
72951;SDS011;61102;51.956;5.878;2022-12-26T11:05:49;8.30;;;1.05;;
72951;SDS011;61102;51.956;5.878;2022-12-26T11:08:32;6.60;;;1.00;;
72951;SDS011;61102;51.956;5.878;2022-12-26T11:13:54;11.93;;;1.00;;
72951;SDS011;61102;51.956;5.878;2022-12-26T11:16:23;11.05;;;1.10;;
72951;SDS011;61102;51.956;5.878;2022-12-26T11:18:52;9.18;;;1.10;;
72951;SDS011;61102;51.956;5.878;2022-12-26T11:21:30;9.77;;;1.00;;
72951;SDS011;61102;51.956;5.878;2022-12-26T11:26:33;4.22;;;0.70;;
72951;SDS011;61102;51.956;5.878;2022-12-26T11:29:34;6.78;;;0.80;;
72951;SDS011;61102;51.956;5.878;2022-12-26T11:31:57;10.07;;;0.80;;
72951;SDS011;61102;51.956;5.878;2022-12-26T11:34:36;6.30;;;0.80;;
72951;SDS011;61102;51.956;5.878;2022-12-26T11:40:20;7.38;;;1.30;;
72951;SDS011;61102;51.956;5.878;2022-12-26T11:42:51;9.07;;;0.70;;
72951;SDS011;61102;51.956;5.878;2022-12-26T11:45:25;8.45;;;1.20;;
72951;SDS011;61102;51.956;5.878;2022-12-26T11:47:54;10.00;;;1.13;;
72951;SDS011;61102;51.956;5.878;2022-12-26T11:50:24;10.40;;;1.20;;
72951;SDS011;61102;51.956;5.878;2022-12-26T11:58:12;7.28;;;1.13;;
72951;SDS011;61102;51.956;5.878;2022-12-26T12:03:15;8.23;;;0.70;;
72951;SDS011;61102;51.956;5.878;2022-12-26T12:16:47;5.30;;;0.60;;
72951;SDS011;61102;51.956;5.878;2022-12-26T12:19:36;7.40;;;0.80;;
72951;SDS011;61102;51.956;5.878;2022-12-26T12:25:04;4.40;;;0.50;;
72951;SDS011;61102;51.956;5.878;2022-12-26T12:35:30;3.88;;;0.40;;
72951;SDS011;61102;51.956;5.878;2022-12-26T12:46:52;7.50;;;0.55;;
72951;SDS011;61102;51.956;5.878;2022-12-26T12:49:46;3.95;;;0.60;;
72951;SDS011;61102;51.956;5.878;2022-12-26T12:57:59;9.32;;;0.70;;
72951;SDS011;61102;51.956;5.878;2022-12-26T13:00:26;8.68;;;0.70;;
72951;SDS011;61102;51.956;5.878;2022-12-26T13:05:41;4.05;;;0.45;;
72951;SDS011;61102;51.956;5.878;2022-12-26T13:08:29;4.07;;;0.40;;
72951;SDS011;61102;51.956;5.878;2022-12-26T13:11:06;5.22;;;0.60;;
72951;SDS011;61102;51.956;5.878;2022-12-26T13:13:49;6.43;;;0.60;;
72951;SDS011;61102;51.956;5.878;2022-12-26T13:16:42;7.50;;;0.65;;
72951;SDS011;61102;51.956;5.878;2022-12-26T13:19:31;2.75;;;0.50;;
72951;SDS011;61102;51.956;5.878;2022-12-26T13:22:15;4.22;;;0.50;;
72951;SDS011;61102;51.956;5.878;2022-12-26T13:24:49;4.07;;;0.50;;
72951;SDS011;61102;51.956;5.878;2022-12-26T13:27:23;6.43;;;0.60;;
72951;SDS011;61102;51.956;5.878;2022-12-26T13:29:52;3.58;;;0.60;;
72951;SDS011;61102;51.956;5.878;2022-12-26T13:32:21;3.75;;;0.50;;
72951;SDS011;61102;51.956;5.878;2022-12-26T13:34:50;4.57;;;0.70;;
72951;SDS011;61102;51.956;5.878;2022-12-26T13:40:05;4.93;;;0.70;;
72951;SDS011;61102;51.956;5.878;2022-12-26T13:42:53;4.47;;;0.57;;
72951;SDS011;61102;51.956;5.878;2022-12-26T13:46:00;2.65;;;0.50;;
72951;SDS011;61102;51.956;5.878;2022-12-26T13:50:55;5.18;;;0.75;;
72951;SDS011;61102;51.956;5.878;2022-12-26T13:53:30;3.53;;;0.40;;
72951;SDS011;61102;51.956;5.878;2022-12-26T13:56:01;3.78;;;0.63;;
72951;SDS011;61102;51.956;5.878;2022-12-26T14:00:56;2.70;;;0.55;;
72951;SDS011;61102;51.956;5.878;2022-12-26T14:03:45;4.60;;;0.52;;
72951;SDS011;61102;51.956;5.878;2022-12-26T14:06:22;1.55;;;0.30;;
72951;SDS011;61102;51.956;5.878;2022-12-26T14:14:43;4.47;;;0.47;;
72951;SDS011;61102;51.956;5.878;2022-12-26T14:34:11;5.97;;;0.60;;
72951;SDS011;61102;51.956;5.878;2022-12-26T14:37:03;4.15;;;0.60;;
72951;SDS011;61102;51.956;5.878;2022-12-26T14:45:51;4.43;;;0.80;;
72951;SDS011;61102;51.956;5.878;2022-12-26T14:50:55;4.88;;;0.60;;
72951;SDS011;61102;51.956;5.878;2022-12-26T14:53:41;5.00;;;0.60;;
72951;SDS011;61102;51.956;5.878;2022-12-26T14:58:46;7.68;;;0.75;;
72951;SDS011;61102;51.956;5.878;2022-12-26T15:11:59;6.35;;;0.70;;
72951;SDS011;61102;51.956;5.878;2022-12-26T15:14:52;3.03;;;0.60;;
72951;SDS011;61102;51.956;5.878;2022-12-26T15:28:51;5.28;;;0.70;;
72951;SDS011;61102;51.956;5.878;2022-12-26T15:48:06;3.85;;;0.47;;
72951;SDS011;61102;51.956;5.878;2022-12-26T15:51:01;2.60;;;0.50;;
72951;SDS011;61102;51.956;5.878;2022-12-26T15:56:31;1.55;;;0.40;;
72951;SDS011;61102;51.956;5.878;2022-12-26T16:02:10;1.88;;;0.55;;
72951;SDS011;61102;51.956;5.878;2022-12-26T16:04:40;4.03;;;0.70;;
72951;SDS011;61102;51.956;5.878;2022-12-26T16:09:53;2.50;;;0.40;;
72951;SDS011;61102;51.956;5.878;2022-12-26T16:15:14;2.03;;;0.40;;
72951;SDS011;61102;51.956;5.878;2022-12-26T16:17:42;2.20;;;0.45;;
72951;SDS011;61102;51.956;5.878;2022-12-26T16:23:23;1.75;;;0.30;;
72951;SDS011;61102;51.956;5.878;2022-12-26T16:25:53;0.60;;;0.30;;
72951;SDS011;61102;51.956;5.878;2022-12-26T16:28:22;2.92;;;0.52;;
72951;SDS011;61102;51.956;5.878;2022-12-26T16:30:51;1.98;;;0.50;;
72951;SDS011;61102;51.956;5.878;2022-12-26T16:33:18;2.42;;;0.43;;
72951;SDS011;61102;51.956;5.878;2022-12-26T16:35:44;3.22;;;0.50;;
72951;SDS011;61102;51.956;5.878;2022-12-26T16:38:15;2.25;;;0.60;;
72951;SDS011;61102;51.956;5.878;2022-12-26T16:40:45;4.05;;;0.60;;
72951;SDS011;61102;51.956;5.878;2022-12-26T16:43:29;2.13;;;0.50;;
72951;SDS011;61102;51.956;5.878;2022-12-26T16:45:59;4.07;;;0.70;;
72951;SDS011;61102;51.956;5.878;2022-12-26T16:48:29;3.63;;;0.50;;
72951;SDS011;61102;51.956;5.878;2022-12-26T16:51:02;5.32;;;0.50;;
72951;SDS011;61102;51.956;5.878;2022-12-26T16:58:45;2.95;;;0.50;;
72951;SDS011;61102;51.956;5.878;2022-12-26T17:01:13;2.50;;;0.60;;
72951;SDS011;61102;51.956;5.878;2022-12-26T17:03:52;4.78;;;0.60;;
72951;SDS011;61102;51.956;5.878;2022-12-26T17:08:58;2.53;;;0.55;;
72951;SDS011;61102;51.956;5.878;2022-12-26T17:11:32;2.45;;;0.60;;
72951;SDS011;61102;51.956;5.878;2022-12-26T17:14:02;1.15;;;0.40;;
72951;SDS011;61102;51.956;5.878;2022-12-26T17:16:33;1.48;;;0.50;;
72951;SDS011;61102;51.956;5.878;2022-12-26T17:19:22;4.53;;;0.60;;
72951;SDS011;61102;51.956;5.878;2022-12-26T17:24:39;4.53;;;0.50;;
72951;SDS011;61102;51.956;5.878;2022-12-26T17:32:37;1.80;;;0.40;;
72951;SDS011;61102;51.956;5.878;2022-12-26T17:37:53;2.10;;;0.60;;
72951;SDS011;61102;51.956;5.878;2022-12-26T17:43:04;1.90;;;0.55;;
72951;SDS011;61102;51.956;5.878;2022-12-26T17:45:33;2.85;;;0.52;;
72951;SDS011;61102;51.956;5.878;2022-12-26T17:47:59;2.97;;;0.52;;
72951;SDS011;61102;51.956;5.878;2022-12-26T17:50:30;4.90;;;1.30;;
72951;SDS011;61102;51.956;5.878;2022-12-26T17:53:03;5.07;;;0.88;;
72951;SDS011;61102;51.956;5.878;2022-12-26T17:55:49;3.50;;;0.80;;
72951;SDS011;61102;51.956;5.878;2022-12-26T17:58:17;4.95;;;0.75;;
72951;SDS011;61102;51.956;5.878;2022-12-26T18:00:43;3.97;;;0.80;;
72951;SDS011;61102;51.956;5.878;2022-12-26T18:03:10;1.50;;;0.50;;
72951;SDS011;61102;51.956;5.878;2022-12-26T18:05:37;3.10;;;0.50;;
72951;SDS011;61102;51.956;5.878;2022-12-26T18:08:04;4.35;;;0.82;;
72951;SDS011;61102;51.956;5.878;2022-12-26T18:10:32;7.20;;;0.73;;
72951;SDS011;61102;51.956;5.878;2022-12-26T18:13:00;2.80;;;0.70;;
72951;SDS011;61102;51.956;5.878;2022-12-26T18:15:28;2.38;;;0.63;;
72951;SDS011;61102;51.956;5.878;2022-12-26T18:17:55;5.80;;;0.77;;
72951;SDS011;61102;51.956;5.878;2022-12-26T18:20:24;6.22;;;1.05;;
72951;SDS011;61102;51.956;5.878;2022-12-26T18:22:52;6.82;;;0.90;;
72951;SDS011;61102;51.956;5.878;2022-12-26T18:25:21;4.63;;;0.80;;
72951;SDS011;61102;51.956;5.878;2022-12-26T18:27:49;7.18;;;0.60;;
72951;SDS011;61102;51.956;5.878;2022-12-26T18:30:17;3.45;;;0.63;;
72951;SDS011;61102;51.956;5.878;2022-12-26T18:32:46;4.05;;;0.70;;
72951;SDS011;61102;51.956;5.878;2022-12-26T18:37:41;4.60;;;0.60;;
72951;SDS011;61102;51.956;5.878;2022-12-26T18:42:49;3.72;;;0.70;;
72951;SDS011;61102;51.956;5.878;2022-12-26T18:45:15;4.35;;;0.68;;
72951;SDS011;61102;51.956;5.878;2022-12-26T18:47:41;6.13;;;0.70;;
72951;SDS011;61102;51.956;5.878;2022-12-26T18:50:11;3.90;;;1.05;;
72951;SDS011;61102;51.956;5.878;2022-12-26T18:52:39;5.57;;;0.80;;
72951;SDS011;61102;51.956;5.878;2022-12-26T18:55:05;4.70;;;0.60;;
72951;SDS011;61102;51.956;5.878;2022-12-26T18:57:32;7.07;;;0.90;;
72951;SDS011;61102;51.956;5.878;2022-12-26T18:59:59;5.13;;;0.75;;
72951;SDS011;61102;51.956;5.878;2022-12-26T19:02:26;4.40;;;0.70;;
72951;SDS011;61102;51.956;5.878;2022-12-26T19:04:52;5.63;;;1.30;;
72951;SDS011;61102;51.956;5.878;2022-12-26T19:07:18;5.15;;;0.98;;
72951;SDS011;61102;51.956;5.878;2022-12-26T19:09:47;7.55;;;1.20;;
72951;SDS011;61102;51.956;5.878;2022-12-26T19:12:15;3.10;;;0.88;;
72951;SDS011;61102;51.956;5.878;2022-12-26T19:14:42;6.28;;;0.90;;
72951;SDS011;61102;51.956;5.878;2022-12-26T19:17:09;3.38;;;0.50;;
72951;SDS011;61102;51.956;5.878;2022-12-26T19:19:36;3.30;;;0.70;;
72951;SDS011;61102;51.956;5.878;2022-12-26T19:22:02;9.13;;;1.50;;
72951;SDS011;61102;51.956;5.878;2022-12-26T19:24:28;6.40;;;1.20;;
72951;SDS011;61102;51.956;5.878;2022-12-26T19:26:55;3.90;;;0.60;;
72951;SDS011;61102;51.956;5.878;2022-12-26T19:29:21;2.45;;;0.60;;
72951;SDS011;61102;51.956;5.878;2022-12-26T19:31:47;4.75;;;0.80;;
72951;SDS011;61102;51.956;5.878;2022-12-26T19:34:14;9.98;;;1.45;;
72951;SDS011;61102;51.956;5.878;2022-12-26T19:36:40;4.28;;;0.98;;
72951;SDS011;61102;51.956;5.878;2022-12-26T19:39:06;6.22;;;1.02;;
72951;SDS011;61102;51.956;5.878;2022-12-26T19:41:32;7.20;;;1.13;;
72951;SDS011;61102;51.956;5.878;2022-12-26T19:43:59;5.10;;;0.80;;